Time;durP1;ratioP1;P1;durP2;ratioP2;P2;SDS_P1;SDS_P2;PMS_P1;PMS_P2;Temp;Humidity;BMP_temperature;BMP_pressure;BME280_temperature;BME280_humidity;BME280_pressure;Samples;Min_cycle;Max_cycle;Signal;HPM_P1;HPM_P2
2024/02/17 00:01:19;;;;;;;29.83;17.10;;;8.80;94.40;;;;;;5037157;28;20215;-85
2024/02/17 00:03:44;;;;;;;24.90;17.20;;;8.80;94.40;;;;;;5018747;28;20196;-85
2024/02/17 00:06:10;;;;;;;26.87;16.70;;;8.80;94.50;;;;;;5036885;28;20251;-85
2024/02/17 00:08:35;;;;;;;21.53;14.30;;;8.80;94.50;;;;;;5018902;28;20193;-84
2024/02/17 00:11:03;;;;;;;23.97;15.70;;;8.70;94.50;;;;;;5036620;28;20180;-86
2024/02/17 00:13:28;;;;;;;24.00;15.97;;;8.80;94.60;;;;;;5036918;28;20169;-85
2024/02/17 00:15:54;;;;;;;24.37;16.60;;;8.70;94.50;;;;;;5036019;28;20200;-85
2024/02/17 00:18:23;;;;;;;28.27;16.97;;;8.70;94.60;;;;;;5018768;28;20227;-85
2024/02/17 00:20:48;;;;;;;24.73;17.30;;;8.70;94.60;;;;;;5037256;28;20169;-85
2024/02/17 00:23:14;;;;;;;18.80;14.40;;;8.70;94.60;;;;;;5036337;28;20176;-85
2024/02/17 00:25:40;;;;;;;22.37;16.03;;;8.70;94.60;;;;;;5036551;28;20203;-85
2024/02/17 00:28:05;;;;;;;25.10;17.53;;;8.70;94.60;;;;;;5036801;28;20612;-85
2024/02/17 00:30:31;;;;;;;26.67;17.20;;;8.70;94.50;;;;;;5019018;28;20636;-85
2024/02/17 00:32:57;;;;;;;28.20;18.00;;;8.70;94.50;;;;;;5018836;28;20177;-86
2024/02/17 00:35:22;;;;;;;26.10;17.00;;;8.70;94.50;;;;;;5035804;28;20168;-85
2024/02/17 00:37:48;;;;;;;28.63;17.37;;;8.70;94.60;;;;;;5018352;28;20293;-86
2024/02/17 00:40:13;;;;;;;26.20;22.33;;;8.60;94.50;;;;;;5036119;28;20204;-85
2024/02/17 00:42:40;;;;;;;33.60;21.37;;;8.60;94.50;;;;;;5036236;28;20176;-85
2024/02/17 00:45:06;;;;;;;33.73;22.77;;;8.60;94.60;;;;;;5035799;28;20219;-85
2024/02/17 00:47:31;;;;;;;29.40;23.27;;;8.60;94.60;;;;;;5036330;28;20188;-85
2024/02/17 00:49:57;;;;;;;28.00;21.00;;;8.60;94.60;;;;;;5036204;28;20565;-85
2024/02/17 00:52:22;;;;;;;26.07;19.93;;;8.50;94.60;;;;;;5036004;28;20180;-85
2024/02/17 00:54:48;;;;;;;28.37;19.83;;;8.50;94.60;;;;;;5017745;28;20187;-85
2024/02/17 00:57:13;;;;;;;24.07;20.00;;;8.50;94.50;;;;;;5035749;28;20191;-85
2024/02/17 00:59:39;;;;;;;21.87;19.70;;;8.50;94.50;;;;;;5035242;28;20177;-84
2024/02/17 01:02:04;;;;;;;27.73;19.97;;;8.50;94.50;;;;;;5035734;28;20172;-85
2024/02/17 01:04:30;;;;;;;21.37;18.07;;;8.50;94.40;;;;;;5035461;28;20193;-85
2024/02/17 01:06:55;;;;;;;28.40;19.47;;;8.40;94.40;;;;;;5017847;28;20205;-85
2024/02/17 01:09:21;;;;;;;31.13;18.70;;;8.40;94.30;;;;;;5035540;28;20193;-85
2024/02/17 01:11:46;;;;;;;28.47;18.57;;;8.40;94.30;;;;;;5017866;28;20180;-85
2024/02/17 01:14:12;;;;;;;25.77;19.37;;;8.30;94.30;;;;;;5017165;28;20181;-85
2024/02/17 01:16:39;;;;;;;22.27;17.00;;;8.30;94.40;;;;;;5016997;28;20195;-85
2024/02/17 01:19:05;;;;;;;20.77;17.83;;;8.30;94.40;;;;;;5034886;28;20214;-85
2024/02/17 01:21:31;;;;;;;18.23;15.57;;;8.30;94.50;;;;;;5034677;28;20180;-84
2024/02/17 01:23:58;;;;;;;18.70;13.03;;;8.30;94.50;;;;;;5017305;28;20683;-85
2024/02/17 01:26:23;;;;;;;21.30;11.67;;;8.20;94.50;;;;;;5034570;28;20196;-85
2024/02/17 01:28:49;;;;;;;13.77;10.90;;;8.20;94.50;;;;;;5016914;28;20300;-85
2024/02/17 01:31:14;;;;;;;15.80;10.53;;;8.20;94.40;;;;;;5034767;28;20180;-85
2024/02/17 01:33:40;;;;;;;10.93;9.03;;;8.10;94.30;;;;;;5017261;28;20180;-85
2024/02/17 01:36:13;;;;;;;9.53;8.50;;;8.10;94.30;;;;;;5035027;28;20647;-85
2024/02/17 01:38:38;;;;;;;15.10;9.40;;;8.10;94.20;;;;;;5034646;28;20250;-85
2024/02/17 01:41:04;;;;;;;13.97;9.83;;;8.00;94.20;;;;;;5016796;28;20176;-85
2024/02/17 01:43:29;;;;;;;15.73;10.73;;;8.00;94.20;;;;;;5034586;28;20177;-86
2024/02/17 01:45:55;;;;;;;13.73;10.43;;;8.00;94.20;;;;;;5034361;28;20204;-85
2024/02/17 01:48:21;;;;;;;16.00;10.40;;;8.00;94.20;;;;;;5016456;28;20652;-85
2024/02/17 01:50:47;;;;;;;10.67;9.40;;;8.00;94.30;;;;;;5034069;28;20584;-85
2024/02/17 01:53:13;;;;;;;13.83;10.60;;;8.00;94.30;;;;;;5035309;28;20180;-85
2024/02/17 01:55:38;;;;;;;15.53;10.40;;;8.00;94.40;;;;;;5016827;28;20185;-85
2024/02/17 01:58:04;;;;;;;12.83;10.10;;;8.00;94.50;;;;;;5017494;28;20668;-85
2024/02/17 02:00:31;;;;;;;15.73;9.13;;;7.90;94.70;;;;;;5034742;28;20251;-84
2024/02/17 02:02:58;;;;;;;17.63;10.27;;;8.00;94.80;;;;;;5034688;28;20183;-85
2024/02/17 02:05:23;;;;;;;10.37;8.67;;;7.90;94.90;;;;;;5034900;28;20247;-85
2024/02/17 02:07:49;;;;;;;10.77;9.67;;;7.90;95.00;;;;;;5016964;28;20208;-85
2024/02/17 02:10:15;;;;;;;10.97;8.17;;;7.90;95.00;;;;;;5017043;28;20187;-85
2024/02/17 02:12:40;;;;;;;13.03;7.80;;;7.90;95.20;;;;;;5034884;28;20183;-85
2024/02/17 02:15:10;;;;;;;11.00;7.30;;;7.80;95.30;;;;;;5035006;28;20617;-85
2024/02/17 02:17:40;;;;;;;12.00;8.23;;;7.90;95.30;;;;;;5035126;28;20185;-85
2024/02/17 02:20:08;;;;;;;12.03;8.73;;;7.90;95.40;;;;;;5016815;28;20172;-85
2024/02/17 02:22:35;;;;;;;11.97;8.87;;;7.80;95.50;;;;;;5034185;28;20211;-85
2024/02/17 02:25:05;;;;;;;9.37;8.33;;;7.80;95.60;;;;;;5034241;28;20175;-85
2024/02/17 02:27:30;;;;;;;13.13;8.67;;;7.80;95.70;;;;;;5034208;28;20197;-85
2024/02/17 02:29:56;;;;;;;11.40;9.23;;;7.80;95.70;;;;;;5034378;28;20179;-85
2024/02/17 02:32:26;;;;;;;12.77;8.70;;;7.80;95.80;;;;;;5016602;28;20181;-85
2024/02/17 02:34:52;;;;;;;8.20;7.40;;;7.80;95.80;;;;;;5034681;28;20704;-85
2024/02/17 02:37:18;;;;;;;7.40;6.70;;;7.80;95.80;;;;;;5034022;28;20176;-85
2024/02/17 02:39:44;;;;;;;6.47;5.77;;;7.60;95.70;;;;;;5036797;28;20177;-86
2024/02/17 02:42:09;;;;;;;6.67;6.13;;;7.40;95.60;;;;;;5039135;28;20207;-84
2024/02/17 02:44:35;;;;;;;8.03;6.27;;;7.30;95.50;;;;;;5038672;28;20177;-85
2024/02/17 02:47:00;;;;;;;7.63;6.83;;;7.20;95.50;;;;;;5038153;28;20196;-85
2024/02/17 02:49:26;;;;;;;8.00;7.30;;;7.20;95.50;;;;;;5020795;28;20192;-85
2024/02/17 02:51:52;;;;;;;6.93;6.30;;;7.20;95.40;;;;;;5020790;28;20176;-85
2024/02/17 02:54:19;;;;;;;7.17;6.47;;;7.20;95.40;;;;;;5038461;28;20169;-86
2024/02/17 02:56:44;;;;;;;7.80;7.10;;;7.20;95.50;;;;;;5038160;28;20169;-85
2024/02/17 02:59:10;;;;;;;7.97;7.20;;;7.20;95.40;;;;;;5038573;28;20196;-85
2024/02/17 03:01:36;;;;;;;8.80;7.37;;;7.20;95.40;;;;;;5038871;28;20169;-85
2024/02/17 03:04:01;;;;;;;7.43;6.87;;;7.10;95.40;;;;;;5038357;28;20185;-85
2024/02/17 03:06:29;;;;;;;9.03;7.00;;;7.10;95.30;;;;;;5020735;28;20299;-86
2024/02/17 03:08:54;;;;;;;8.17;6.50;;;7.20;95.40;;;;;;5038637;28;20189;-85
2024/02/17 03:11:20;;;;;;;7.87;6.33;;;7.10;95.30;;;;;;5038726;28;20260;-85
2024/02/17 03:13:46;;;;;;;11.33;6.67;;;7.20;95.30;;;;;;5038434;28;20634;-86
2024/02/17 03:16:21;;;;;;;8.97;6.90;;;7.10;95.30;;;;;;5038242;28;20641;-85
2024/02/17 03:18:46;;;;;;;6.90;6.50;;;7.10;95.30;;;;;;5038325;28;20196;-86
2024/02/17 03:21:12;;;;;;;8.37;6.80;;;7.10;95.30;;;;;;5020190;28;20187;-86
2024/02/17 03:23:37;;;;;;;7.30;6.60;;;7.00;95.30;;;;;;5038131;28;20177;-85
2024/02/17 03:26:03;;;;;;;7.20;6.40;;;7.00;95.30;;;;;;5037737;28;20204;-86
2024/02/17 03:28:31;;;;;;;13.90;12.57;;;7.10;95.30;;;;;;5037737;28;20193;-85
2024/02/17 03:30:57;;;;;;;13.27;12.33;;;7.00;95.30;;;;;;5038288;28;20169;-85
2024/02/17 03:33:23;;;;;;;13.33;12.33;;;7.00;95.30;;;;;;5019769;28;20206;-85
2024/02/17 03:35:48;;;;;;;13.70;12.60;;;7.00;95.30;;;;;;5037974;28;20180;-88
2024/02/17 03:38:14;;;;;;;11.83;11.13;;;7.00;95.40;;;;;;5038026;28;20196;-86
2024/02/17 03:40:40;;;;;;;12.10;11.20;;;6.90;95.40;;;;;;5020385;28;20247;-85
2024/02/17 03:43:05;;;;;;;11.60;10.87;;;6.90;95.40;;;;;;5037522;28;20177;-85
2024/02/17 03:45:31;;;;;;;12.10;11.10;;;6.90;95.40;;;;;;5020208;28;20215;-84
2024/02/17 03:47:56;;;;;;;11.73;10.73;;;6.70;95.40;;;;;;5037659;28;20220;-86
2024/02/17 03:50:22;;;;;;;11.63;10.80;;;6.60;95.30;;;;;;5036902;28;20206;-86
2024/02/17 03:52:48;;;;;;;10.83;9.93;;;6.60;95.40;;;;;;5037071;28;20177;-86
2024/02/17 03:55:13;;;;;;;11.53;10.53;;;6.60;95.40;;;;;;5019897;28;20192;-86
2024/02/17 03:57:39;;;;;;;11.40;10.60;;;6.60;95.40;;;;;;5037838;28;20197;-86
2024/02/17 04:00:07;;;;;;;12.17;11.37;;;6.50;95.30;;;;;;5038108;28;20169;-86
2024/02/17 04:02:33;;;;;;;11.93;10.97;;;6.50;95.40;;;;;;5020051;28;20172;-89
2024/02/17 04:04:58;;;;;;;13.37;12.07;;;6.50;95.30;;;;;;5037626;28;20188;-86
2024/02/17 04:07:24;;;;;;;11.07;5.73;;;6.40;95.30;;;;;;5037494;28;20172;-86
2024/02/17 04:09:50;;;;;;;6.70;5.97;;;6.40;95.30;;;;;;5019617;28;20180;-86
2024/02/17 04:12:16;;;;;;;9.67;6.17;;;6.30;95.20;;;;;;5037548;28;20165;-88
2024/02/17 04:14:43;;;;;;;10.23;6.17;;;6.30;95.20;;;;;;5037516;28;20553;-86
2024/02/17 04:17:09;;;;;;;8.73;6.60;;;6.30;95.10;;;;;;5037582;28;20211;-85
2024/02/17 04:19:34;;;;;;;7.37;6.00;;;6.30;95.10;;;;;;5037879;28;20572;-87
2024/02/17 04:22:00;;;;;;;11.37;6.10;;;6.30;95.10;;;;;;5037922;28;20191;-86
2024/02/17 04:24:25;;;;;;;6.40;5.90;;;6.30;95.00;;;;;;5037451;28;20177;-86
2024/02/17 04:26:51;;;;;;;11.53;6.77;;;6.30;94.80;;;;;;5036798;28;20215;-86
2024/02/17 04:29:17;;;;;;;7.57;6.73;;;6.30;94.70;;;;;;5037618;28;20720;-85
2024/02/17 04:31:43;;;;;;;9.80;7.40;;;6.30;94.50;;;;;;5037918;28;20188;-85
2024/02/17 04:34:08;;;;;;;8.10;7.60;;;6.30;94.30;;;;;;5037841;28;20660;-85
2024/02/17 04:36:34;;;;;;;8.73;8.03;;;6.30;93.80;;;;;;5037599;28;20636;-86
2024/02/17 04:39:00;;;;;;;9.43;8.70;;;6.30;93.70;;;;;;5036723;28;20222;-85
2024/02/17 04:41:26;;;;;;;9.30;8.70;;;6.30;93.30;;;;;;5036888;28;20169;-86
2024/02/17 04:43:51;;;;;;;8.73;8.03;;;6.30;93.10;;;;;;5037172;28;20175;-86
2024/02/17 04:46:17;;;;;;;9.33;8.53;;;6.30;93.00;;;;;;5037192;28;20635;-85
2024/02/17 04:48:42;;;;;;;9.50;8.70;;;6.30;92.70;;;;;;5018938;28;20189;-85
2024/02/17 04:51:08;;;;;;;8.97;8.37;;;6.40;92.80;;;;;;5019148;28;20212;-85
2024/02/17 04:53:33;;;;;;;9.90;9.07;;;6.40;92.70;;;;;;5036795;28;20179;-85
2024/02/17 04:55:59;;;;;;;9.10;8.60;;;6.40;92.40;;;;;;5036941;28;20222;-87
2024/02/17 04:58:24;;;;;;;9.47;8.87;;;6.30;92.50;;;;;;5019004;28;20200;-86
2024/02/17 05:00:50;;;;;;;9.23;8.40;;;6.30;92.50;;;;;;5036489;28;20177;-86
2024/02/17 05:03:15;;;;;;;9.33;8.43;;;6.30;92.70;;;;;;5018684;28;20656;-86
2024/02/17 05:05:44;;;;;;;9.27;8.57;;;6.30;92.80;;;;;;5018686;28;20200;-86
2024/02/17 05:08:10;;;;;;;9.23;8.33;;;6.30;92.90;;;;;;5037286;28;20189;-86
2024/02/17 05:10:38;;;;;;;9.67;8.70;;;6.30;93.00;;;;;;5036927;28;20675;-87
2024/02/17 05:13:03;;;;;;;10.13;9.20;;;6.20;92.90;;;;;;5018561;28;20594;-85
2024/02/17 05:15:29;;;;;;;9.60;8.73;;;6.20;92.80;;;;;;5018607;28;20188;-87
2024/02/17 05:17:55;;;;;;;10.30;9.50;;;6.10;92.90;;;;;;5036586;28;20201;-85
2024/02/17 05:20:20;;;;;;;10.00;9.20;;;6.10;92.80;;;;;;5018505;28;20227;-86
2024/02/17 05:22:46;;;;;;;10.03;9.03;;;6.10;92.80;;;;;;5018700;28;20263;-85
2024/02/17 05:25:11;;;;;;;10.10;9.27;;;6.00;92.80;;;;;;5036019;28;20263;-85
2024/02/17 05:27:37;;;;;;;13.50;9.10;;;6.00;92.80;;;;;;5018209;28;20196;-87
2024/02/17 05:30:03;;;;;;;10.33;9.27;;;6.00;92.90;;;;;;5018735;28;20172;-87
2024/02/17 05:32:29;;;;;;;10.27;9.37;;;6.00;92.80;;;;;;5018566;28;20215;-86
2024/02/17 05:34:54;;;;;;;9.87;8.83;;;6.00;92.90;;;;;;5036890;28;20637;-88
2024/02/17 05:37:21;;;;;;;9.87;9.00;;;6.00;93.00;;;;;;5036486;28;20544;-86
2024/02/17 05:39:47;;;;;;;9.60;8.60;;;6.00;93.00;;;;;;5036150;28;20172;-87
2024/02/17 05:42:13;;;;;;;9.17;8.27;;;6.00;93.00;;;;;;5036723;28;20653;-86
2024/02/17 05:44:38;;;;;;;8.97;8.07;;;6.00;92.80;;;;;;5036282;28;20172;-85
2024/02/17 05:47:04;;;;;;;9.03;8.13;;;6.00;92.70;;;;;;5036345;28;20196;-86
2024/02/17 05:49:29;;;;;;;8.83;8.13;;;6.00;92.60;;;;;;5036086;28;20192;-84
2024/02/17 05:51:56;;;;;;;9.33;8.37;;;6.00;92.60;;;;;;5037292;28;20248;-87
2024/02/17 05:54:22;;;;;;;9.30;8.60;;;5.90;92.70;;;;;;5037303;28;20165;-86
2024/02/17 05:56:50;;;;;;;9.00;8.23;;;5.90;92.90;;;;;;5018997;28;20180;-84
2024/02/17 05:59:16;;;;;;;8.70;7.43;;;5.90;92.90;;;;;;5037346;28;20196;-86
2024/02/17 06:01:42;;;;;;;8.63;7.97;;;5.90;93.00;;;;;;5036544;28;20173;-87
2024/02/17 06:04:08;;;;;;;9.90;8.27;;;6.00;93.10;;;;;;5018554;28;20195;-87
2024/02/17 06:06:34;;;;;;;8.73;7.80;;;6.00;93.20;;;;;;5036201;28;20223;-89
2024/02/17 06:09:00;;;;;;;10.03;7.90;;;6.10;93.10;;;;;;5035493;28;20752;-88
2024/02/17 06:11:25;;;;;;;12.57;8.40;;;6.10;93.10;;;;;;5036962;28;20227;-87
2024/02/17 06:13:51;;;;;;;11.43;8.20;;;6.10;93.20;;;;;;5036539;28;20667;-89
2024/02/17 06:16:18;;;;;;;17.97;16.10;;;6.10;93.20;;;;;;5018270;28;20669;-89
2024/02/17 06:21:28;;;;;;;15.23;13.93;;;6.10;93.10;;;;;;5036256;28;20219;-86
2024/02/17 06:23:55;;;;;;;16.87;15.10;;;6.10;93.10;;;;;;5037286;28;20180;-86
2024/02/17 06:26:26;;;;;;;16.10;14.70;;;6.10;93.00;;;;;;5018528;28;20664;-87
2024/02/17 06:28:53;;;;;;;20.40;16.50;;;6.10;93.00;;;;;;5017674;28;20292;-87
2024/02/17 06:31:19;;;;;;;17.40;15.67;;;6.10;93.00;;;;;;5018115;28;20561;-86
2024/02/17 06:33:44;;;;;;;17.20;15.80;;;6.10;93.00;;;;;;5018405;28;20248;-88
2024/02/17 06:36:10;;;;;;;22.83;18.10;;;6.10;92.90;;;;;;5036689;28;20208;-85
2024/02/17 06:38:36;;;;;;;17.07;15.20;;;6.10;92.80;;;;;;5018654;28;20200;-85
2024/02/17 06:41:02;;;;;;;20.90;15.83;;;6.10;92.80;;;;;;5036498;28;20263;-87
2024/02/17 06:43:29;;;;;;;25.00;15.70;;;6.10;92.80;;;;;;5037084;28;20185;-86
2024/02/17 06:45:54;;;;;;;21.50;16.37;;;6.10;92.70;;;;;;5035612;28;20235;-88
2024/02/17 06:48:20;;;;;;;25.97;17.47;;;6.20;92.70;;;;;;5016147;28;20196;-88
2024/02/17 06:50:45;;;;;;;22.80;16.50;;;6.20;92.70;;;;;;5018352;28;20169;-88
2024/02/17 06:53:11;;;;;;;16.53;9.93;;;6.20;92.50;;;;;;5018718;28;20192;-86
2024/02/17 06:55:36;;;;;;;16.90;10.57;;;6.20;92.40;;;;;;5017930;28;20622;-87
2024/02/17 06:58:02;;;;;;;15.63;10.70;;;6.20;92.40;;;;;;5017816;28;20727;-85
2024/02/17 07:00:28;;;;;;;23.97;12.87;;;6.10;91.90;;;;;;5036377;28;20176;-87
2024/02/17 07:02:53;;;;;;;16.17;11.53;;;6.20;91.90;;;;;;5017485;28;20177;-87
2024/02/17 07:05:19;;;;;;;16.57;11.50;;;6.20;91.70;;;;;;5036607;28;20273;-85
2024/02/17 07:07:44;;;;;;;16.50;12.00;;;6.20;91.70;;;;;;5018445;28;20189;-86
2024/02/17 07:10:10;;;;;;;22.93;11.90;;;6.20;91.60;;;;;;5018444;28;20177;-87
2024/02/17 07:12:37;;;;;;;21.33;12.37;;;6.20;91.40;;;;;;5036810;28;20173;-86
2024/02/17 07:15:03;;;;;;;22.27;13.07;;;6.20;91.30;;;;;;5036579;28;20162;-86
2024/02/17 07:17:28;;;;;;;24.20;12.57;;;6.20;91.30;;;;;;5035513;28;20188;-88
2024/02/17 07:19:54;;;;;;;30.40;12.93;;;6.20;91.20;;;;;;5036063;28;20175;-88
2024/02/17 07:22:20;;;;;;;23.97;13.57;;;6.20;90.90;;;;;;5035091;28;20237;-85
2024/02/17 07:24:45;;;;;;;22.77;14.33;;;6.30;90.80;;;;;;5036033;28;20651;-85
2024/02/17 07:27:11;;;;;;;24.37;15.40;;;6.30;90.80;;;;;;5039971;28;20220;-85
2024/02/17 07:29:38;;;;;;;26.17;15.57;;;6.20;90.00;;;;;;5040210;28;20227;-85
2024/02/17 07:32:05;;;;;;;24.87;16.57;;;6.20;89.60;;;;;;5040051;28;20226;-87
2024/02/17 07:34:31;;;;;;;24.20;17.80;;;6.20;88.60;;;;;;5039918;28;20181;-86
2024/02/17 07:36:58;;;;;;;25.30;17.60;;;6.20;87.90;;;;;;5021352;28;20208;-85
2024/02/17 07:39:24;;;;;;;27.63;18.57;;;6.20;87.70;;;;;;5039249;28;20284;-86
2024/02/17 07:41:50;;;;;;;26.73;17.73;;;6.30;87.20;;;;;;5039773;28;20180;-85
2024/02/17 07:44:17;;;;;;;29.90;18.43;;;6.30;87.50;;;;;;5039662;28;20181;-86
2024/02/17 07:46:43;;;;;;;28.20;18.70;;;6.20;87.60;;;;;;5039237;28;20601;-87
2024/02/17 07:49:09;;;;;;;28.20;18.23;;;6.30;87.40;;;;;;5039682;28;20201;-85
2024/02/17 07:51:35;;;;;;;30.37;17.93;;;6.30;87.30;;;;;;5039879;28;20540;-86
2024/02/17 07:54:01;;;;;;;27.43;17.33;;;6.30;87.70;;;;;;5021711;28;20176;-86
2024/02/17 07:56:26;;;;;;;24.17;17.80;;;6.30;87.60;;;;;;5040082;28;20183;-86
2024/02/17 07:58:52;;;;;;;33.23;17.67;;;6.30;87.80;;;;;;5039138;28;20736;-88
2024/02/17 08:01:19;;;;;;;21.90;17.73;;;6.30;88.10;;;;;;5021181;28;20191;-86
2024/02/17 08:03:45;;;;;;;33.73;17.90;;;6.40;88.20;;;;;;5039520;28;20215;-86
2024/02/17 08:06:11;;;;;;;34.43;18.33;;;6.40;88.30;;;;;;5039567;28;20571;-87
2024/02/17 08:08:36;;;;;;;25.27;17.90;;;6.40;88.30;;;;;;5039858;28;20211;-88
2024/02/17 08:11:02;;;;;;;29.60;17.87;;;6.40;88.20;;;;;;5021601;28;20165;-86
2024/02/17 08:13:28;;;;;;;25.87;17.90;;;6.40;87.60;;;;;;5039861;28;20176;-83
2024/02/17 08:15:53;;;;;;;26.47;18.57;;;6.40;87.20;;;;;;5039676;28;20173;-86
2024/02/17 08:18:19;;;;;;;24.73;19.40;;;6.40;87.20;;;;;;5039942;28;20192;-87
2024/02/17 08:20:46;;;;;;;25.50;18.10;;;6.40;87.20;;;;;;5039637;28;20181;-86
2024/02/17 08:23:12;;;;;;;28.20;20.27;;;6.40;87.20;;;;;;5021589;28;20180;-88
2024/02/17 08:25:37;;;;;;;29.57;19.60;;;6.40;87.00;;;;;;5039480;28;20625;-86
2024/02/17 08:28:03;;;;;;;27.37;20.20;;;6.50;87.20;;;;;;5039582;28;20196;-86
2024/02/17 08:30:28;;;;;;;21.47;19.13;;;6.40;87.20;;;;;;5039865;28;20175;-87
2024/02/17 08:32:56;;;;;;;28.23;18.73;;;6.40;87.20;;;;;;5039157;28;20177;-85
2024/02/17 08:35:21;;;;;;;32.50;29.13;;;6.40;87.40;;;;;;5021499;28;20188;-85
2024/02/17 08:37:48;;;;;;;34.00;29.93;;;6.40;87.00;;;;;;5020925;28;20207;-85
2024/02/17 08:40:13;;;;;;;32.63;28.33;;;6.40;87.30;;;;;;5039272;28;20255;-87
2024/02/17 08:42:39;;;;;;;36.30;28.27;;;6.40;87.30;;;;;;5039366;28;20547;-86
2024/02/17 08:45:04;;;;;;;33.10;29.93;;;6.40;87.30;;;;;;5021076;28;20173;-87
2024/02/17 08:47:31;;;;;;;38.33;29.33;;;6.40;87.00;;;;;;5038883;28;20200;-88
2024/02/17 08:49:56;;;;;;;34.50;30.10;;;6.40;87.20;;;;;;5020564;28;20173;-85
2024/02/17 08:52:22;;;;;;;35.30;31.80;;;6.40;86.70;;;;;;5039280;28;20176;-85
2024/02/17 08:54:48;;;;;;;33.77;29.10;;;6.30;86.40;;;;;;5039015;28;20165;-87
2024/02/17 08:57:13;;;;;;;27.73;24.90;;;6.40;86.30;;;;;;5021066;28;20260;-86
2024/02/17 08:59:39;;;;;;;32.83;28.87;;;6.40;85.20;;;;;;5039216;28;20224;-87
2024/02/17 09:02:04;;;;;;;31.03;27.70;;;6.40;85.40;;;;;;5039340;28;20226;-85
2024/02/17 09:04:30;;;;;;;35.03;29.17;;;6.40;85.60;;;;;;5039049;28;20192;-86
2024/02/17 09:06:56;;;;;;;31.93;28.33;;;6.40;85.80;;;;;;5021122;28;20267;-86
2024/02/17 09:09:21;;;;;;;31.60;28.10;;;6.40;86.30;;;;;;5039414;28;20231;-86
2024/02/17 09:11:47;;;;;;;33.70;29.40;;;6.50;86.70;;;;;;5039537;28;20176;-86
2024/02/17 09:14:12;;;;;;;35.87;29.87;;;6.50;86.90;;;;;;5021307;28;20183;-86
2024/02/17 09:16:38;;;;;;;33.60;28.23;;;6.50;87.20;;;;;;5039530;28;20260;-86
2024/02/17 09:19:03;;;;;;;35.60;28.80;;;6.60;87.50;;;;;;5039101;28;20192;-88
2024/02/17 09:21:29;;;;;;;33.30;28.93;;;6.60;87.40;;;;;;5039239;28;20525;-86
2024/02/17 09:23:55;;;;;;;34.97;30.13;;;6.50;86.40;;;;;;5039263;28;20696;-87
2024/02/17 09:26:21;;;;;;;31.13;20.53;;;6.50;86.40;;;;;;5021356;28;20572;-87
2024/02/17 09:28:47;;;;;;;27.17;20.77;;;6.50;86.30;;;;;;5038670;28;20672;-88
2024/02/17 09:31:12;;;;;;;29.00;20.43;;;6.60;86.20;;;;;;5020057;28;20215;-86
2024/02/17 09:33:38;;;;;;;32.87;21.33;;;6.50;85.50;;;;;;5038594;28;20214;-89
2024/02/17 09:36:06;;;;;;;32.37;20.53;;;6.50;85.40;;;;;;5038453;28;20177;-88
2024/02/17 09:38:31;;;;;;;26.53;20.20;;;6.60;85.10;;;;;;5021086;28;20193;-87
2024/02/17 09:40:57;;;;;;;28.40;21.00;;;6.50;84.60;;;;;;5019070;28;20269;-87
2024/02/17 09:43:25;;;;;;;37.87;20.83;;;6.70;85.10;;;;;;5038222;28;20203;-88
2024/02/17 09:45:51;;;;;;;33.00;20.20;;;6.70;85.60;;;;;;5019817;28;20196;-87
2024/02/17 09:48:17;;;;;;;34.37;21.57;;;6.70;85.60;;;;;;5017955;28;20192;-86
2024/02/17 09:50:44;;;;;;;27.97;20.50;;;6.80;85.60;;;;;;5015879;28;20187;-85
2024/02/17 09:53:12;;;;;;;38.87;21.13;;;6.80;85.40;;;;;;5015928;28;20185;-85
2024/02/17 09:55:37;;;;;;;28.63;21.57;;;6.80;85.50;;;;;;5033813;28;20192;-85
2024/02/17 09:58:03;;;;;;;34.00;22.20;;;6.70;84.00;;;;;;5016018;28;20220;-86
2024/02/17 10:00:29;;;;;;;34.93;21.70;;;6.80;84.60;;;;;;5034053;28;20180;-85
2024/02/17 10:02:54;;;;;;;29.77;21.57;;;6.80;84.50;;;;;;5015717;28;20591;-86
2024/02/17 10:05:27;;;;;;;32.97;21.33;;;6.80;84.30;;;;;;5033227;28;20176;-86
2024/02/17 10:07:53;;;;;;;27.77;21.57;;;6.80;84.30;;;;;;5033269;28;20184;-85
2024/02/17 10:10:20;;;;;;;29.43;21.67;;;7.00;84.50;;;;;;5015748;28;20169;-85
2024/02/17 10:12:56;;;;;;;33.40;22.00;;;7.00;84.80;;;;;;5033401;28;20691;-86
2024/02/17 10:15:23;;;;;;;34.17;22.40;;;7.00;85.00;;;;;;5033613;28;20144;-85
2024/02/17 10:17:49;;;;;;;37.47;22.73;;;6.90;83.90;;;;;;5033395;28;20192;-85
2024/02/17 10:20:15;;;;;;;30.13;23.20;;;6.90;83.70;;;;;;5033634;28;20531;-88
2024/02/17 10:22:43;;;;;;;29.00;23.53;;;6.80;82.80;;;;;;5015782;28;20206;-85
2024/02/17 10:25:10;;;;;;;35.40;23.03;;;6.80;82.20;;;;;;5033398;28;20173;-85
2024/02/17 10:27:36;;;;;;;26.30;20.77;;;6.90;83.20;;;;;;5033436;28;20196;-85
2024/02/17 10:30:13;;;;;;;24.77;21.37;;;7.00;83.80;;;;;;5033122;28;20173;-86
2024/02/17 10:32:39;;;;;;;31.70;21.47;;;6.90;82.50;;;;;;5015720;28;20591;-85
2024/02/17 10:35:07;;;;;;;24.80;20.27;;;6.90;82.70;;;;;;5033244;28;20173;-85
2024/02/17 10:37:35;;;;;;;32.00;24.00;;;7.00;83.20;;;;;;5015620;28;20270;-86
2024/02/17 10:40:03;;;;;;;31.30;22.43;;;7.00;83.00;;;;;;5033054;28;20261;-85
2024/02/17 10:42:29;;;;;;;37.80;22.37;;;7.00;83.20;;;;;;5015374;28;20230;-85
2024/02/17 10:44:58;;;;;;;30.97;22.80;;;7.10;83.20;;;;;;5015325;28;20172;-85
2024/02/17 10:47:33;;;;;;;31.85;23.98;;;7.10;83.00;;;;;;5014431;28;20433;-85
2024/02/17 10:50:17;;;;;;;31.73;24.83;;;7.20;82.60;;;;;;5015593;28;20175;-85
2024/02/17 10:52:43;;;;;;;33.20;23.37;;;7.10;82.40;;;;;;5015498;28;20256;-84
2024/02/17 10:55:12;;;;;;;30.03;22.97;;;7.20;82.80;;;;;;5033232;28;20520;-84
2024/02/17 10:57:48;;;;;;;27.40;22.90;;;7.20;82.60;;;;;;5033025;28;20212;-85
2024/02/17 11:00:15;;;;;;;26.87;22.80;;;7.10;82.10;;;;;;5034987;28;20218;-85
2024/02/17 11:02:42;;;;;;;30.30;22.63;;;7.20;82.20;;;;;;5037301;28;20243;-84
2024/02/17 11:05:08;;;;;;;31.70;22.70;;;7.20;82.20;;;;;;5036950;28;20199;-85
2024/02/17 11:07:34;;;;;;;42.80;38.40;;;7.20;82.20;;;;;;5037197;28;20331;-85
2024/02/17 11:10:06;;;;;;;44.63;40.27;;;7.20;82.30;;;;;;5019351;28;20648;-85
2024/02/17 11:12:34;;;;;;;45.77;41.07;;;7.20;81.80;;;;;;5037055;28;20165;-84
2024/02/17 11:15:09;;;;;;;46.47;40.57;;;7.10;81.70;;;;;;5036819;28;20259;-85
2024/02/17 11:17:37;;;;;;;47.43;40.50;;;7.10;81.70;;;;;;5036827;28;20223;-85
2024/02/17 11:20:11;;;;;;;45.83;41.30;;;7.20;82.40;;;;;;5036678;28;20176;-84
2024/02/17 11:22:52;;;;;;;47.87;40.07;;;7.20;82.10;;;;;;5019092;28;20211;-85
2024/02/17 11:25:35;;;;;;;47.33;39.90;;;7.40;82.30;;;;;;5036534;28;20153;-85
2024/02/17 11:28:04;;;;;;;48.27;40.30;;;7.40;82.30;;;;;;5018832;28;20192;-85
2024/02/17 11:30:47;;;;;;;44.90;39.10;;;7.50;82.70;;;;;;5018806;28;20519;-85
2024/02/17 11:33:15;;;;;;;43.50;38.97;;;7.50;82.50;;;;;;5018713;28;20169;-85
2024/02/17 11:35:44;;;;;;;46.53;41.87;;;7.60;82.40;;;;;;5019039;28;20181;-85
2024/02/17 11:38:13;;;;;;;47.77;43.03;;;7.50;81.60;;;;;;5018789;28;20247;-84
2024/02/17 11:40:40;;;;;;;46.83;42.23;;;7.50;81.70;;;;;;5018643;28;20173;-84
2024/02/17 11:43:06;;;;;;;45.63;41.17;;;7.60;82.30;;;;;;5036584;28;20641;-85
2024/02/17 11:45:31;;;;;;;47.07;42.30;;;7.90;81.30;;;;;;5019770;28;20235;-88
2024/02/17 11:47:57;;;;;;;31.33;28.20;;;7.80;80.00;;;;;;5041959;28;20192;-88
2024/02/17 11:50:22;;;;;;;39.73;27.60;;;7.80;80.00;;;;;;5042621;28;20555;-87
2024/02/17 11:52:49;;;;;;;38.03;30.93;;;7.80;80.70;;;;;;5039859;28;20180;-86
2024/02/17 11:55:16;;;;;;;35.17;29.27;;;7.60;79.50;;;;;;5024270;28;20184;-87
2024/02/17 11:57:42;;;;;;;50.03;45.00;;;7.60;80.50;;;;;;5041852;28;20192;-86
2024/02/17 12:00:10;;;;;;;50.00;44.83;;;7.60;80.30;;;;;;5042838;28;20180;-88
2024/02/17 12:02:39;;;;;;;46.43;41.43;;;7.50;81.00;;;;;;5026050;28;20173;-89
2024/02/17 12:05:06;;;;;;;51.83;43.80;;;7.70;81.40;;;;;;5024930;28;20195;-88
2024/02/17 12:07:33;;;;;;;49.97;41.57;;;7.80;81.00;;;;;;5042836;28;20236;-88
2024/02/17 12:09:59;;;;;;;45.57;41.00;;;7.90;81.50;;;;;;5024936;28;20764;-87
2024/02/17 12:12:25;;;;;;;50.83;45.90;;;8.00;81.90;;;;;;5041904;28;20208;-88
2024/02/17 12:14:54;;;;;;;57.90;44.07;;;8.00;81.20;;;;;;5043630;28;20200;-88
2024/02/17 12:17:21;;;;;;;49.23;44.03;;;7.80;80.20;;;;;;5042589;28;20263;-88
2024/02/17 12:19:46;;;;;;;45.97;41.60;;;7.70;81.40;;;;;;5042092;28;20200;-88
2024/02/17 12:22:13;;;;;;;45.53;41.00;;;7.80;81.00;;;;;;5042008;28;20675;-88
2024/02/17 12:24:40;;;;;;;43.77;39.70;;;7.60;80.90;;;;;;5024826;28;20188;-87
2024/02/17 12:27:07;;;;;;;55.73;43.27;;;7.80;81.00;;;;;;5041813;28;20204;-85
2024/02/17 12:29:32;;;;;;;39.77;25.20;;;7.50;79.50;;;;;;5023422;28;20192;-87
2024/02/17 12:31:58;;;;;;;38.23;24.00;;;7.60;80.60;;;;;;5041972;28;20220;-87
2024/02/17 12:34:29;;;;;;;31.40;23.40;;;7.70;80.40;;;;;;5023758;28;20230;-87
2024/02/17 12:36:58;;;;;;;25.57;21.90;;;8.00;80.70;;;;;;5023895;28;20176;-88
2024/02/17 12:39:25;;;;;;;32.40;25.60;;;8.40;79.40;;;;;;5041468;28;20223;-88